Time;durP1;ratioP1;P1;durP2;ratioP2;P2;SDS_P1;SDS_P2;PMS_P1;PMS_P2;Temp;Humidity;BMP_temperature;BMP_pressure;BME280_temperature;BME280_humidity;BME280_pressure;Samples;Min_cycle;Max_cycle;Signal;HPM_P1;HPM_P2
2023/12/21 05:18:36;;;;;;;0.45;0.45;;;5.40;99.90;;;;;;7588459;19;20385;-70
2023/12/21 05:21:09;;;;;;;0.40;0.40;;;5.40;99.90;;;;;;7590899;19;20018;-70
2023/12/21 05:23:42;;;;;;;1.08;0.60;;;5.60;99.90;;;;;;7613772;19;20022;-70
2023/12/21 05:26:17;;;;;;;0.88;0.47;;;5.60;99.90;;;;;;7571149;19;20021;-71
2023/12/21 05:28:49;;;;;;;0.40;0.40;;;5.70;99.90;;;;;;7594244;19;20104;-71
2023/12/21 05:31:24;;;;;;;0.50;0.40;;;5.70;99.90;;;;;;7592135;19;20054;-72
2023/12/21 05:33:56;;;;;;;1.13;0.40;;;5.80;99.90;;;;;;7617938;19;20926;-71
2023/12/21 05:36:29;;;;;;;0.50;0.50;;;5.90;99.90;;;;;;7579519;19;20038;-72
2023/12/21 05:39:03;;;;;;;0.50;0.50;;;5.80;99.90;;;;;;7602307;19;20014;-73
2023/12/21 05:41:48;;;;;;;0.60;0.60;;;5.80;99.90;;;;;;7589297;19;20018;-70
2023/12/21 05:44:20;;;;;;;1.13;0.63;;;5.80;99.90;;;;;;7607157;19;20057;-72
2023/12/21 05:46:53;;;;;;;0.47;0.47;;;5.80;99.90;;;;;;7605165;19;20029;-71
2023/12/21 05:49:25;;;;;;;0.60;0.60;;;5.90;99.90;;;;;;7616084;19;20018;-73
2023/12/21 05:51:59;;;;;;;0.50;0.50;;;5.90;99.90;;;;;;7599151;19;20018;-72
2023/12/21 05:54:32;;;;;;;1.20;0.55;;;5.90;99.90;;;;;;7597507;19;20521;-72
2023/12/21 05:57:05;;;;;;;0.52;0.40;;;5.90;99.90;;;;;;7619598;19;20033;-71
2023/12/21 05:59:38;;;;;;;0.47;0.47;;;5.90;99.90;;;;;;7619800;19;20524;-73
2023/12/21 06:02:13;;;;;;;0.70;0.35;;;5.90;99.90;;;;;;7622479;19;20037;-70
2023/12/21 06:04:45;;;;;;;1.98;0.70;;;6.00;99.90;;;;;;7607480;19;21855;-70
2023/12/21 06:07:19;;;;;;;0.80;0.30;;;6.00;99.90;;;;;;7590726;19;20090;-70
2023/12/21 06:09:52;;;;;;;1.55;0.75;;;6.00;99.90;;;;;;7613565;19;20044;-71
2023/12/21 06:12:24;;;;;;;0.50;0.50;;;6.10;99.90;;;;;;7609354;19;20517;-70
2023/12/21 06:14:57;;;;;;;0.50;0.43;;;6.10;99.90;;;;;;7578980;19;21048;-72
2023/12/21 06:17:29;;;;;;;0.38;0.38;;;6.00;99.90;;;;;;7608171;19;20007;-71
2023/12/21 06:20:02;;;;;;;2.20;0.40;;;6.10;99.90;;;;;;7602581;19;20018;-70
2023/12/21 06:22:34;;;;;;;0.68;0.40;;;6.10;99.90;;;;;;7611199;19;20022;-70
2023/12/21 06:25:07;;;;;;;0.50;0.40;;;6.10;99.90;;;;;;7609485;19;20010;-69
2023/12/21 06:27:40;;;;;;;0.50;0.50;;;6.10;99.90;;;;;;7607703;19;20056;-71
2023/12/21 06:30:12;;;;;;;0.50;0.50;;;6.20;99.90;;;;;;7570243;19;20023;-72
2023/12/21 06:32:45;;;;;;;0.45;0.43;;;6.20;99.90;;;;;;7576212;19;21574;-70
2023/12/21 06:35:18;;;;;;;0.70;0.63;;;6.20;99.90;;;;;;7579151;19;20044;-70
2023/12/21 06:37:50;;;;;;;0.50;0.50;;;6.30;99.90;;;;;;7578899;19;20042;-72
2023/12/21 06:40:29;;;;;;;0.40;0.30;;;6.30;99.90;;;;;;7593372;19;20484;-73
2023/12/21 06:43:12;;;;;;;0.52;0.40;;;6.40;99.90;;;;;;7594570;19;20022;-72
2023/12/21 06:45:49;;;;;;;0.50;0.50;;;6.30;99.90;;;;;;7587097;19;20015;-72
2023/12/21 06:48:22;;;;;;;;;;;6.30;99.90;;;;;;7576091;19;20018;-71
2023/12/21 06:50:55;;;;;;;0.50;0.38;;;6.30;99.90;;;;;;7595860;19;19934;-71
2023/12/21 06:53:28;;;;;;;0.37;0.37;;;6.40;99.90;;;;;;7583683;19;20040;-70
2023/12/21 06:56:00;;;;;;;0.50;0.50;;;6.40;99.90;;;;;;7595910;19;20017;-71
2023/12/21 06:58:53;;;;;;;0.50;0.50;;;6.40;99.90;;;;;;7584724;19;22010;-71
2023/12/21 07:01:26;;;;;;;0.70;0.70;;;6.50;99.90;;;;;;7574704;19;20361;-72
2023/12/21 07:03:59;;;;;;;;;;;6.50;99.90;;;;;;7578410;19;20014;-72
2023/12/21 07:06:31;;;;;;;0.47;0.47;;;6.50;99.90;;;;;;7560179;19;20019;-71
2023/12/21 07:09:09;;;;;;;1.60;0.70;;;6.50;99.90;;;;;;7603255;19;20022;-71
2023/12/21 07:11:48;;;;;;;0.50;0.50;;;6.40;99.90;;;;;;7573105;19;20014;-71
2023/12/21 07:14:21;;;;;;;0.60;0.60;;;6.40;99.90;;;;;;7581682;19;20011;-71
2023/12/21 07:16:54;;;;;;;0.77;0.50;;;6.50;99.90;;;;;;7579317;19;20537;-72
2023/12/21 07:19:26;;;;;;;0.63;0.60;;;6.50;99.90;;;;;;7589294;19;20456;-71
2023/12/21 07:21:59;;;;;;;0.43;0.43;;;6.60;99.90;;;;;;7574197;19;20029;-71
2023/12/21 07:24:32;;;;;;;1.13;0.55;;;6.60;99.90;;;;;;7554100;19;20019;-71
2023/12/21 07:27:04;;;;;;;0.55;0.50;;;6.60;99.90;;;;;;7585648;19;20041;-72
2023/12/21 07:29:36;;;;;;;0.60;0.60;;;6.70;99.90;;;;;;7600368;19;20077;-72
2023/12/21 07:32:09;;;;;;;0.52;0.52;;;6.70;99.90;;;;;;7605431;19;20813;-70
2023/12/21 07:34:41;;;;;;;0.50;0.50;;;6.70;99.90;;;;;;7600420;19;20022;-71
2023/12/21 07:37:16;;;;;;;0.60;0.60;;;6.80;99.90;;;;;;7602495;19;20014;-71
2023/12/21 07:39:49;;;;;;;0.47;0.45;;;6.70;99.90;;;;;;7605625;19;20451;-72
2023/12/21 07:42:21;;;;;;;1.20;1.10;;;6.80;99.90;;;;;;7608471;19;20007;-70
2023/12/21 07:44:54;;;;;;;0.55;0.50;;;6.90;99.90;;;;;;7586023;19;20014;-70
2023/12/21 07:47:26;;;;;;;0.75;0.57;;;6.90;99.90;;;;;;7600561;19;20006;-71
2023/12/21 07:49:58;;;;;;;0.57;0.57;;;6.90;99.90;;;;;;7599747;19;20094;-71
2023/12/21 07:52:31;;;;;;;0.40;0.35;;;6.90;99.90;;;;;;7588085;19;20014;-72
2023/12/21 07:55:06;;;;;;;1.90;0.97;;;6.90;99.90;;;;;;7600611;19;20772;-71
2023/12/21 07:57:39;;;;;;;0.90;0.60;;;7.00;99.90;;;;;;7586455;19;20018;-71
2023/12/21 08:00:12;;;;;;;0.57;0.40;;;7.00;99.90;;;;;;7594210;19;20195;-72
2023/12/21 13:58:58;;;;;;;1.23;0.97;;;8.10;99.90;;;;;;7474602;19;3004404;-74
2023/12/21 14:01:40;;;;;;;1.40;1.10;;;8.10;99.90;;;;;;7636772;19;20270;-76
2023/12/21 14:04:21;;;;;;;1.63;1.20;;;8.30;99.90;;;;;;7609987;19;20482;-75
2023/12/21 14:06:54;;;;;;;2.55;0.80;;;8.40;99.90;;;;;;7638809;19;20051;-76
2023/12/21 14:09:26;;;;;;;4.35;1.02;;;8.50;99.90;;;;;;7607589;19;20057;-77
2023/12/21 14:12:02;;;;;;;1.95;0.60;;;8.60;99.90;;;;;;7643377;19;20018;-75
2023/12/21 14:14:35;;;;;;;1.80;0.80;;;8.60;99.90;;;;;;7639611;19;20033;-77
2023/12/21 14:17:08;;;;;;;2.20;1.10;;;8.70;99.90;;;;;;7632045;19;20090;-75
2023/12/21 14:19:43;;;;;;;1.20;0.73;;;8.70;99.90;;;;;;7622794;19;20104;-74
2023/12/21 14:22:16;;;;;;;1.85;0.70;;;8.70;99.90;;;;;;7625203;19;20018;-74
2023/12/21 14:24:49;;;;;;;2.78;0.80;;;8.60;99.90;;;;;;7600405;19;20517;-75
2023/12/21 14:27:26;;;;;;;0.40;0.40;;;8.50;99.90;;;;;;7606891;19;20006;-76
2023/12/21 14:30:00;;;;;;;1.33;0.77;;;8.60;99.90;;;;;;7625987;19;20021;-75
2023/12/21 14:32:35;;;;;;;1.15;0.80;;;8.60;99.90;;;;;;7604807;19;20010;-76
2023/12/21 14:35:07;;;;;;;0.85;0.60;;;8.60;99.90;;;;;;7601109;19;20018;-75
2023/12/21 14:37:40;;;;;;;0.80;0.63;;;8.60;99.90;;;;;;7589916;19;20018;-75
2023/12/21 14:40:13;;;;;;;5.18;0.90;;;8.60;99.90;;;;;;7605920;19;20090;-75
2023/12/21 14:42:46;;;;;;;2.03;0.87;;;8.60;99.90;;;;;;7604701;19;20937;-75
2023/12/21 14:45:21;;;;;;;0.90;0.70;;;8.60;99.90;;;;;;7573251;19;20026;-76
2023/12/21 14:47:54;;;;;;;2.15;0.93;;;8.70;99.90;;;;;;7546490;19;20859;-76
2023/12/21 14:50:27;;;;;;;2.05;1.15;;;8.50;99.90;;;;;;7574485;19;20047;-74
2023/12/21 14:52:59;;;;;;;1.98;0.47;;;8.40;99.90;;;;;;7567211;19;20029;-74
2023/12/21 14:55:33;;;;;;;1.20;0.70;;;8.20;99.90;;;;;;7578189;19;20024;-75
2023/12/21 14:58:06;;;;;;;1.52;1.00;;;7.90;99.90;;;;;;7560152;19;20026;-74
2023/12/21 15:00:40;;;;;;;7.38;1.80;;;7.80;99.90;;;;;;7544162;19;20014;-75
2023/12/21 15:03:13;;;;;;;2.55;1.67;;;7.80;99.90;;;;;;7538099;19;20018;-75
2023/12/21 15:05:46;;;;;;;1.65;1.17;;;7.70;99.90;;;;;;7591904;19;20014;-75
2023/12/21 15:08:20;;;;;;;2.10;1.02;;;7.70;99.90;;;;;;7553178;19;23241;-75
2023/12/21 15:10:53;;;;;;;5.25;2.95;;;7.70;99.90;;;;;;7518787;19;20025;-75
2023/12/21 15:13:26;;;;;;;1.30;1.20;;;7.70;99.90;;;;;;7530757;19;20014;-73
2023/12/21 15:15:59;;;;;;;1.35;0.98;;;7.70;99.90;;;;;;7039371;19;10000543;-75
2023/12/21 15:18:31;;;;;;;9.43;3.30;;;7.70;99.90;;;;;;7564416;19;20730;-76
2023/12/21 15:21:11;;;;;;;1.35;0.57;;;7.70;99.90;;;;;;7599997;19;20010;-73
2023/12/21 15:23:44;;;;;;;1.60;0.80;;;7.70;99.90;;;;;;7606906;19;20022;-75
2023/12/21 15:26:17;;;;;;;2.78;1.70;;;7.70;99.90;;;;;;7582354;19;20010;-74
2023/12/21 15:28:50;;;;;;;1.15;1.00;;;7.80;99.90;;;;;;7615863;19;21801;-74
2023/12/21 15:31:23;;;;;;;1.90;1.35;;;7.80;99.90;;;;;;7597652;19;20026;-74
2023/12/21 15:33:55;;;;;;;1.83;1.30;;;7.80;99.90;;;;;;7600569;19;20025;-75
2023/12/21 15:36:29;;;;;;;2.58;1.95;;;7.80;99.90;;;;;;7607714;19;20006;-74
2023/12/21 15:39:05;;;;;;;2.40;1.50;;;7.70;99.90;;;;;;7585726;19;20018;-75
2023/12/21 15:41:39;;;;;;;2.83;1.93;;;7.70;99.90;;;;;;7594354;19;20299;-73
2023/12/21 15:44:14;;;;;;;2.53;1.50;;;7.70;99.90;;;;;;7605063;19;20019;-74
2023/12/21 15:46:46;;;;;;;0.95;0.80;;;7.60;99.90;;;;;;7575173;19;20660;-74
2023/12/21 15:49:20;;;;;;;1.10;0.98;;;7.70;99.90;;;;;;7617970;19;20367;-75
2023/12/21 15:51:53;;;;;;;0.88;0.55;;;7.60;99.90;;;;;;7598913;19;20113;-74
2023/12/21 15:54:28;;;;;;;1.25;0.60;;;7.60;99.90;;;;;;7593099;19;20057;-73
2023/12/21 15:57:00;;;;;;;3.92;1.25;;;7.60;99.90;;;;;;7595815;19;20034;-74
2023/12/21 15:59:34;;;;;;;1.25;0.90;;;7.50;99.90;;;;;;7591480;19;20086;-73
2023/12/21 16:02:07;;;;;;;0.88;0.75;;;7.50;99.90;;;;;;7580460;19;20083;-73
2023/12/21 16:04:39;;;;;;;0.68;0.50;;;7.50;99.90;;;;;;7574599;19;20086;-76
2023/12/21 16:07:12;;;;;;;0.95;0.60;;;7.60;99.90;;;;;;7587818;19;20777;-74
2023/12/21 16:09:47;;;;;;;1.85;0.43;;;7.60;99.90;;;;;;7570766;19;21159;-76
2023/12/21 16:12:20;;;;;;;1.00;0.70;;;7.60;99.90;;;;;;7580298;19;20051;-76
2023/12/21 16:14:52;;;;;;;1.10;0.52;;;7.60;99.90;;;;;;7580396;19;20019;-74
2023/12/21 16:17:24;;;;;;;0.60;0.60;;;7.70;99.90;;;;;;7582399;19;20018;-73
2023/12/21 16:19:56;;;;;;;0.60;0.60;;;7.70;99.90;;;;;;7588561;19;20011;-76
2023/12/21 16:22:29;;;;;;;0.63;0.63;;;7.80;99.90;;;;;;7580062;19;20786;-77
2023/12/21 16:25:02;;;;;;;0.60;0.57;;;7.80;99.90;;;;;;7580796;19;20959;-76
2023/12/21 16:27:35;;;;;;;1.20;0.43;;;7.90;99.90;;;;;;7586055;19;20014;-75
2023/12/21 16:30:08;;;;;;;0.85;0.50;;;7.90;99.90;;;;;;7576083;19;20320;-74
2023/12/21 16:32:40;;;;;;;1.02;0.60;;;7.90;99.90;;;;;;7553854;19;20722;-76
2023/12/21 16:35:13;;;;;;;1.83;1.00;;;7.90;99.90;;;;;;7572186;19;20995;-76
2023/12/21 16:37:46;;;;;;;0.85;0.50;;;8.00;99.90;;;;;;7551781;19;20011;-74
2023/12/21 16:40:21;;;;;;;0.95;0.70;;;8.00;99.90;;;;;;7566969;19;20018;-77
2023/12/21 16:42:53;;;;;;;1.08;0.80;;;8.00;99.90;;;;;;7577111;19;21026;-77
2023/12/21 16:45:26;;;;;;;3.13;1.05;;;8.00;99.90;;;;;;7557848;19;20846;-74
2023/12/21 16:48:01;;;;;;;2.83;1.67;;;;;;;;;;7570717;19;20677;-76
2023/12/21 16:50:34;;;;;;;0.77;0.63;;;;;;;;;;7563217;19;20017;-75
2023/12/21 16:53:07;;;;;;;1.60;0.70;;;8.10;99.90;;;;;;7565849;19;20213;-77
2023/12/21 16:55:40;;;;;;;0.50;0.50;;;8.20;99.90;;;;;;7563436;19;20697;-75
2023/12/21 16:58:12;;;;;;;0.40;0.40;;;8.20;99.90;;;;;;7561797;19;20018;-74
2023/12/21 17:00:45;;;;;;;0.88;0.70;;;8.20;99.90;;;;;;7555120;19;20022;-74
2023/12/21 17:03:17;;;;;;;0.73;0.60;;;8.30;99.90;;;;;;7575143;19;20103;-73
2023/12/21 17:05:50;;;;;;;0.40;0.40;;;8.20;99.90;;;;;;7566030;19;20029;-74
2023/12/21 17:08:22;;;;;;;0.82;0.50;;;8.20;99.90;;;;;;7568286;19;20198;-74
2023/12/21 17:10:54;;;;;;;0.45;0.40;;;8.20;99.90;;;;;;7565054;19;20820;-76
2023/12/21 17:13:27;;;;;;;0.88;0.70;;;8.30;99.90;;;;;;7569202;19;21191;-74
2023/12/21 17:16:00;;;;;;;0.50;0.40;;;8.40;99.90;;;;;;7573108;19;20920;-74
2023/12/21 17:18:32;;;;;;;0.30;0.30;;;8.40;99.90;;;;;;7553268;19;20057;-74
2023/12/21 17:21:05;;;;;;;0.50;0.50;;;8.40;99.90;;;;;;7556048;19;20037;-74
2023/12/21 17:23:38;;;;;;;0.73;0.50;;;8.50;99.90;;;;;;7560806;19;20019;-77
2023/12/21 17:26:11;;;;;;;1.60;0.47;;;8.50;99.90;;;;;;7560135;19;20015;-76
2023/12/21 17:28:44;;;;;;;1.27;0.50;;;8.50;99.90;;;;;;7540947;19;20018;-75
2023/12/21 17:31:16;;;;;;;0.45;0.43;;;8.60;99.90;;;;;;7566016;19;20026;-75
2023/12/21 17:33:52;;;;;;;0.30;0.30;;;8.60;99.90;;;;;;7559443;19;20015;-75
2023/12/21 17:36:25;;;;;;;3.60;0.57;;;8.60;99.90;;;;;;7534932;19;20010;-74
2023/12/21 17:38:58;;;;;;;0.40;0.40;;;8.50;99.90;;;;;;7548038;19;20021;-75
2023/12/21 17:41:30;;;;;;;0.57;0.50;;;8.60;99.90;;;;;;7542781;19;20061;-74
2023/12/21 17:44:03;;;;;;;0.63;0.50;;;8.60;99.90;;;;;;7529449;19;21074;-74
2023/12/21 17:46:35;;;;;;;0.85;0.70;;;8.70;99.90;;;;;;7596239;19;20022;-76
2023/12/21 17:49:11;;;;;;;1.02;0.68;;;8.70;99.90;;;;;;7567696;19;20702;-75
2023/12/21 17:51:44;;;;;;;0.65;0.50;;;8.70;99.90;;;;;;7572337;19;21152;-75
2023/12/21 17:54:19;;;;;;;0.45;0.40;;;8.70;99.90;;;;;;7561145;19;20055;-75
2023/12/21 17:56:53;;;;;;;20.75;13.90;;;8.80;99.90;;;;;;7564085;19;20436;-78
2023/12/21 17:59:25;;;;;;;0.65;0.40;;;8.70;99.90;;;;;;7583165;19;20018;-75
2023/12/21 18:01:58;;;;;;;3.63;2.58;;;8.80;99.90;;;;;;7541893;19;21136;-75
2023/12/21 18:04:30;;;;;;;0.68;0.68;;;8.80;99.90;;;;;;7625404;19;20026;-74
2023/12/21 18:07:06;;;;;;;0.93;0.60;;;8.80;99.90;;;;;;7592395;19;20015;-76
2023/12/21 18:09:39;;;;;;;0.70;0.70;;;8.80;99.90;;;;;;7592093;19;20007;-74
2023/12/21 18:12:12;;;;;;;0.90;0.60;;;8.80;99.90;;;;;;7566283;19;20018;-75
2023/12/21 18:14:45;;;;;;;5.40;0.55;;;8.80;99.90;;;;;;7545295;19;20882;-77
2023/12/21 18:17:17;;;;;;;0.80;0.60;;;8.80;99.90;;;;;;7577504;19;20025;-75
2023/12/21 18:19:50;;;;;;;0.63;0.50;;;8.90;99.90;;;;;;7591946;19;20015;-75
2023/12/21 18:22:22;;;;;;;0.65;0.60;;;9.00;99.90;;;;;;7602199;19;21127;-76
2023/12/21 18:24:56;;;;;;;0.77;0.60;;;8.90;99.90;;;;;;7551371;19;20616;-76
2023/12/21 18:27:28;;;;;;;1.00;0.70;;;8.90;99.90;;;;;;7545983;19;20019;-74
2023/12/21 18:30:00;;;;;;;1.20;0.57;;;8.90;99.90;;;;;;7534121;19;20018;-75
2023/12/21 18:32:36;;;;;;;0.47;0.40;;;9.00;99.90;;;;;;7565342;19;20125;-77
2023/12/21 18:35:09;;;;;;;4.40;2.60;;;9.00;99.90;;;;;;7578929;19;20351;-75
2023/12/21 18:37:41;;;;;;;0.70;0.50;;;9.00;99.90;;;;;;7588838;19;20194;-76
2023/12/21 18:40:14;;;;;;;1.00;0.70;;;8.90;99.90;;;;;;7589199;19;20015;-76
2023/12/21 18:42:48;;;;;;;0.60;0.60;;;8.90;99.90;;;;;;7547660;19;20566;-74
2023/12/21 18:45:20;;;;;;;0.60;0.50;;;8.90;99.90;;;;;;7562342;19;20061;-75
2023/12/21 18:47:54;;;;;;;2.08;1.42;;;9.00;99.90;;;;;;7553317;19;20025;-79
2023/12/21 18:50:26;;;;;;;1.00;0.80;;;9.00;99.90;;;;;;7585075;19;20035;-76
2023/12/21 18:53:01;;;;;;;1.38;0.90;;;9.00;99.90;;;;;;7568137;19;20014;-75
2023/12/21 18:55:37;;;;;;;4.70;3.42;;;9.10;99.90;;;;;;7583396;19;20014;-75
2023/12/21 18:58:10;;;;;;;1.30;1.20;;;9.00;99.90;;;;;;7573850;19;20014;-76
2023/12/21 19:00:43;;;;;;;4.53;3.30;;;9.00;99.90;;;;;;7571733;19;20812;-75
2023/12/21 19:03:16;;;;;;;2.95;2.25;;;9.00;99.90;;;;;;7563642;19;20018;-75
2023/12/21 19:05:48;;;;;;;35.58;24.50;;;9.00;99.90;;;;;;7555065;19;20025;-75
2023/12/21 19:08:22;;;;;;;1.50;0.85;;;9.00;99.90;;;;;;7563180;19;20019;-75
2023/12/21 19:10:55;;;;;;;;;;;8.90;99.90;;;;;;7552202;19;20018;-75
2023/12/21 19:13:28;;;;;;;1.67;0.87;;;9.00;99.90;;;;;;7562465;19;21042;-75
2023/12/21 19:16:02;;;;;;;0.98;0.88;;;9.00;99.90;;;;;;7543954;19;20040;-77
2023/12/21 19:18:34;;;;;;;2.75;0.50;;;8.90;99.90;;;;;;7544971;19;20036;-76
2023/12/21 19:21:10;;;;;;;0.65;0.55;;;8.90;99.90;;;;;;7556563;19;20014;-76
2023/12/21 19:23:43;;;;;;;0.57;0.55;;;8.90;99.90;;;;;;7553876;19;20933;-74
2023/12/21 19:26:17;;;;;;;0.52;0.45;;;9.00;99.90;;;;;;7534303;19;20026;-77
2023/12/21 19:28:49;;;;;;;0.82;0.40;;;8.90;99.90;;;;;;7557121;19;20486;-76
2023/12/21 19:31:23;;;;;;;;;;;8.90;99.90;;;;;;7553983;19;20022;-74
2023/12/21 19:33:56;;;;;;;1.80;1.10;;;8.90;99.90;;;;;;7555063;19;19930;-77
2023/12/21 19:36:29;;;;;;;1.45;1.00;;;8.80;99.90;;;;;;7553497;19;20022;-75
2023/12/21 19:39:04;;;;;;;1.77;1.08;;;8.70;99.90;;;;;;7543499;19;20025;-75
2023/12/21 19:41:36;;;;;;;2.53;1.35;;;8.50;99.90;;;;;;7551670;19;20447;-75
2023/12/21 19:44:08;;;;;;;1.00;0.90;;;8.20;99.90;;;;;;7540054;19;20014;-74
2023/12/21 19:46:40;;;;;;;4.72;2.70;;;8.10;99.90;;;;;;7550943;19;20025;-75
2023/12/21 19:49:13;;;;;;;1.58;0.90;;;8.00;99.90;;;;;;7558504;19;22865;-74
2023/12/21 19:51:45;;;;;;;1.88;1.23;;;7.90;99.90;;;;;;7563106;19;20907;-75
2023/12/21 19:54:18;;;;;;;2.45;1.50;;;7.90;99.90;;;;;;7563532;19;20019;-75
2023/12/21 19:56:50;;;;;;;5.03;2.30;;;7.90;99.90;;;;;;7548275;19;20112;-74
2023/12/21 19:59:23;;;;;;;1.93;1.40;;;7.90;99.90;;;;;;7557725;19;20019;-74
2023/12/21 20:01:56;;;;;;;3.67;1.95;;;7.90;99.90;;;;;;7535035;19;20014;-74
2023/12/21 20:04:29;;;;;;;2.03;1.35;;;7.90;99.90;;;;;;7564730;19;20015;-75
2023/12/21 20:07:02;;;;;;;2.15;1.33;;;7.90;99.90;;;;;;7552194;19;20085;-75
2023/12/21 20:09:35;;;;;;;2.63;1.63;;;7.90;99.90;;;;;;7553693;19;20014;-76
2023/12/21 20:12:08;;;;;;;2.55;1.60;;;8.00;99.90;;;;;;7552766;19;20369;-73
2023/12/21 20:14:41;;;;;;;1.88;1.08;;;8.00;99.90;;;;;;7553466;19;20029;-74
2023/12/21 20:17:13;;;;;;;2.42;1.30;;;8.00;99.90;;;;;;7549229;19;20022;-76
2023/12/21 20:19:45;;;;;;;1.40;1.05;;;8.00;99.90;;;;;;7565053;19;20920;-76
2023/12/21 20:22:18;;;;;;;2.15;1.50;;;8.00;99.90;;;;;;7542784;19;20019;-75
2023/12/21 20:24:50;;;;;;;3.97;2.13;;;8.00;99.90;;;;;;7547527;19;20014;-76
2023/12/21 20:27:22;;;;;;;1.10;0.93;;;8.00;99.90;;;;;;7541067;19;20015;-78
2023/12/21 20:29:54;;;;;;;1.73;0.88;;;8.00;99.90;;;;;;7558273;19;20010;-75
2023/12/21 20:32:27;;;;;;;2.22;1.20;;;8.10;99.90;;;;;;7553763;19;20010;-75
2023/12/21 20:35:00;;;;;;;1.17;0.80;;;8.10;99.90;;;;;;7551565;19;20494;-76
2023/12/21 20:37:32;;;;;;;2.60;1.10;;;8.10;99.90;;;;;;7543046;19;20316;-74
2023/12/21 20:40:05;;;;;;;3.47;0.90;;;8.10;99.90;;;;;;7534724;19;20014;-74
2023/12/21 20:42:38;;;;;;;2.53;0.93;;;8.10;99.90;;;;;;7552150;19;20724;-75
2023/12/21 20:45:11;;;;;;;5.68;0.98;;;8.10;99.90;;;;;;7508289;19;20014;-73
2023/12/21 20:47:43;;;;;;;4.67;1.20;;;8.10;99.90;;;;;;7542847;19;20141;-76
2023/12/21 20:50:16;;;;;;;1.80;1.10;;;8.20;99.90;;;;;;7551804;19;20014;-75
2023/12/21 20:52:52;;;;;;;1.40;0.88;;;8.30;99.90;;;;;;7538333;19;20014;-72
2023/12/21 20:55:25;;;;;;;2.25;1.35;;;8.30;99.90;;;;;;7542295;19;20015;-71
2023/12/21 20:57:58;;;;;;;1.17;1.07;;;8.30;99.90;;;;;;7526684;19;20018;-72
2023/12/21 21:00:30;;;;;;;2.05;0.98;;;8.30;99.90;;;;;;7523754;19;20028;-72
2023/12/21 21:03:04;;;;;;;1.83;0.90;;;8.30;99.90;;;;;;7542291;19;20014;-72
2023/12/21 21:05:37;;;;;;;0.52;0.50;;;8.30;99.90;;;;;;7523244;19;20033;-75
2023/12/21 21:08:10;;;;;;;0.80;0.50;;;8.50;99.90;;;;;;7520682;19;20112;-75
2023/12/21 21:10:42;;;;;;;1.13;1.02;;;8.60;99.90;;;;;;7547662;19;20201;-74
2023/12/21 21:13:14;;;;;;;0.95;0.57;;;8.60;99.90;;;;;;7497711;19;20039;-74
2023/12/21 21:15:47;;;;;;;1.87;0.60;;;8.60;99.90;;;;;;7569224;19;20033;-74
2023/12/21 21:18:21;;;;;;;4.40;0.77;;;8.60;99.90;;;;;;7567128;19;20278;-75
2023/12/21 21:20:54;;;;;;;1.35;1.10;;;8.70;99.90;;;;;;7574552;19;20039;-74
2023/12/21 21:23:28;;;;;;;6.60;1.15;;;8.50;99.90;;;;;;7569264;19;20400;-75
2023/12/21 21:26:02;;;;;;;1.35;0.90;;;8.30;99.90;;;;;;7583336;19;20502;-73
2023/12/21 21:28:34;;;;;;;;;;;8.20;99.90;;;;;;7582688;19;20033;-73
2023/12/21 21:31:12;;;;;;;0.70;0.68;;;8.10;99.90;;;;;;7576460;19;19922;-72
2023/12/21 21:33:44;;;;;;;0.95;0.73;;;8.20;99.90;;;;;;7583093;19;20036;-72
2023/12/21 21:36:17;;;;;;;1.52;0.63;;;8.20;99.90;;;;;;7582101;19;20026;-72
2023/12/21 21:38:49;;;;;;;0.60;0.60;;;8.20;99.90;;;;;;7585014;19;20845;-74
2023/12/21 21:41:21;;;;;;;0.88;0.60;;;8.20;99.90;;;;;;7576314;19;20010;-73
2023/12/21 21:43:54;;;;;;;0.52;0.52;;;8.40;99.90;;;;;;7572556;19;20784;-74
